sensor_id;sensor_type;location;lat;lon;timestamp;pressure;altitude;pressure_sealevel;temperature;humidity
6433;BME280;3249;42.690;23.260;2023-05-23T00:00:09;94144.09;;;11.12;100.00
6433;BME280;3249;42.690;23.260;2023-05-23T00:02:44;94141.75;;;11.11;100.00
6433;BME280;3249;42.690;23.260;2023-05-23T00:05:13;94144.34;;;11.11;100.00
6433;BME280;3249;42.690;23.260;2023-05-23T00:07:43;94129.88;;;11.10;100.00
6433;BME280;3249;42.690;23.260;2023-05-23T00:10:12;94114.72;;;11.02;100.00
6433;BME280;3249;42.690;23.260;2023-05-23T00:12:42;94106.75;;;10.39;100.00
6433;BME280;3249;42.690;23.260;2023-05-23T00:15:13;94137.84;;;10.67;100.00
6433;BME280;3249;42.690;23.260;2023-05-23T00:17:44;94138.50;;;10.63;100.00
6433;BME280;3249;42.690;23.260;2023-05-23T00:20:13;94138.41;;;10.69;100.00
6433;BME280;3249;42.690;23.260;2023-05-23T00:22:43;94131.78;;;10.62;100.00
6433;BME280;3249;42.690;23.260;2023-05-23T00:25:13;94124.47;;;10.47;100.00
6433;BME280;3249;42.690;23.260;2023-05-23T00:27:42;94098.22;;;10.27;100.00
6433;BME280;3249;42.690;23.260;2023-05-23T00:30:11;94124.63;;;10.64;100.00
6433;BME280;3249;42.690;23.260;2023-05-23T00:32:40;94126.19;;;10.65;100.00
6433;BME280;3249;42.690;23.260;2023-05-23T00:35:12;94130.84;;;10.27;100.00
6433;BME280;3249;42.690;23.260;2023-05-23T00:37:41;94127.56;;;10.38;100.00
6433;BME280;3249;42.690;23.260;2023-05-23T00:40:11;94126.94;;;10.54;100.00
6433;BME280;3249;42.690;23.260;2023-05-23T00:42:40;94123.03;;;10.63;100.00
6433;BME280;3249;42.690;23.260;2023-05-23T00:45:10;94122.50;;;10.61;100.00
6433;BME280;3249;42.690;23.260;2023-05-23T00:47:40;94132.69;;;10.67;100.00
6433;BME280;3249;42.690;23.260;2023-05-23T00:50:14;94129.78;;;10.64;100.00
6433;BME280;3249;42.690;23.260;2023-05-23T00:52:44;94133.22;;;10.58;100.00
6433;BME280;3249;42.690;23.260;2023-05-23T00:55:14;94134.94;;;10.34;100.00
6433;BME280;3249;42.690;23.260;2023-05-23T00:57:43;94131.91;;;10.08;100.00
6433;BME280;3249;42.690;23.260;2023-05-23T01:00:13;94117.53;;;10.18;100.00
6433;BME280;3249;42.690;23.260;2023-05-23T01:02:46;94129.00;;;10.34;100.00
6433;BME280;3249;42.690;23.260;2023-05-23T01:05:19;94133.63;;;10.43;100.00
6433;BME280;3249;42.690;23.260;2023-05-23T01:07:50;94134.97;;;10.46;100.00
6433;BME280;3249;42.690;23.260;2023-05-23T01:10:22;94118.66;;;10.22;100.00
6433;BME280;3249;42.690;23.260;2023-05-23T01:13:06;94133.13;;;10.35;100.00
6433;BME280;3249;42.690;23.260;2023-05-23T01:15:45;94131.66;;;10.27;100.00
6433;BME280;3249;42.690;23.260;2023-05-23T01:18:18;94138.56;;;10.27;100.00
6433;BME280;3249;42.690;23.260;2023-05-23T01:20:57;94136.09;;;10.02;100.00
6433;BME280;3249;42.690;23.260;2023-05-23T01:23:38;94133.75;;;10.01;100.00
6433;BME280;3249;42.690;23.260;2023-05-23T01:26:26;94137.31;;;10.00;100.00
6433;BME280;3249;42.690;23.260;2023-05-23T01:29:08;94145.53;;;10.08;100.00
6433;BME280;3249;42.690;23.260;2023-05-23T01:31:42;94128.03;;;10.17;100.00
6433;BME280;3249;42.690;23.260;2023-05-23T01:34:12;94126.22;;;10.17;100.00
6433;BME280;3249;42.690;23.260;2023-05-23T01:36:42;94131.59;;;9.98;100.00
6433;BME280;3249;42.690;23.260;2023-05-23T01:39:11;94125.47;;;9.81;100.00
6433;BME280;3249;42.690;23.260;2023-05-23T01:41:40;94106.97;;;9.72;100.00
6433;BME280;3249;42.690;23.260;2023-05-23T01:44:12;94123.88;;;9.62;100.00
6433;BME280;3249;42.690;23.260;2023-05-23T01:46:42;94121.94;;;9.57;100.00
6433;BME280;3249;42.690;23.260;2023-05-23T01:49:14;94116.97;;;9.62;100.00
6433;BME280;3249;42.690;23.260;2023-05-23T01:51:44;94119.59;;;9.74;100.00
6433;BME280;3249;42.690;23.260;2023-05-23T01:54:14;94119.44;;;9.87;100.00
6433;BME280;3249;42.690;23.260;2023-05-23T01:56:45;94110.47;;;9.78;100.00
6433;BME280;3249;42.690;23.260;2023-05-23T01:59:19;94108.63;;;9.85;100.00
6433;BME280;3249;42.690;23.260;2023-05-23T02:01:48;94111.63;;;9.64;100.00
6433;BME280;3249;42.690;23.260;2023-05-23T02:04:18;94108.31;;;9.75;100.00
6433;BME280;3249;42.690;23.260;2023-05-23T02:06:47;94118.59;;;9.57;100.00
6433;BME280;3249;42.690;23.260;2023-05-23T02:09:15;94109.75;;;9.71;100.00
6433;BME280;3249;42.690;23.260;2023-05-23T02:11:44;94113.53;;;9.68;100.00
6433;BME280;3249;42.690;23.260;2023-05-23T02:14:14;94118.16;;;9.59;100.00
6433;BME280;3249;42.690;23.260;2023-05-23T02:16:45;94114.38;;;9.44;100.00
6433;BME280;3249;42.690;23.260;2023-05-23T02:19:17;94124.22;;;9.65;100.00
6433;BME280;3249;42.690;23.260;2023-05-23T02:21:46;94121.66;;;9.47;100.00
6433;BME280;3249;42.690;23.260;2023-05-23T02:24:15;94120.97;;;9.58;100.00
6433;BME280;3249;42.690;23.260;2023-05-23T02:26:45;94106.53;;;9.57;100.00
6433;BME280;3249;42.690;23.260;2023-05-23T02:29:13;94081.50;;;9.52;100.00
6433;BME280;3249;42.690;23.260;2023-05-23T02:31:45;94113.91;;;9.72;100.00
6433;BME280;3249;42.690;23.260;2023-05-23T02:34:14;94112.38;;;9.64;100.00
6433;BME280;3249;42.690;23.260;2023-05-23T02:36:43;94106.97;;;9.72;100.00
6433;BME280;3249;42.690;23.260;2023-05-23T02:39:12;94092.53;;;9.35;100.00
6433;BME280;3249;42.690;23.260;2023-05-23T02:41:42;94100.31;;;9.28;100.00
6433;BME280;3249;42.690;23.260;2023-05-23T02:44:11;94106.81;;;9.31;100.00
6433;BME280;3249;42.690;23.260;2023-05-23T02:46:40;94106.03;;;9.48;100.00
6433;BME280;3249;42.690;23.260;2023-05-23T02:49:12;94106.75;;;9.55;100.00
6433;BME280;3249;42.690;23.260;2023-05-23T02:51:41;94099.28;;;9.54;100.00
6433;BME280;3249;42.690;23.260;2023-05-23T02:54:10;94093.44;;;9.22;100.00
6433;BME280;3249;42.690;23.260;2023-05-23T02:56:39;94109.66;;;9.41;100.00
6433;BME280;3249;42.690;23.260;2023-05-23T02:59:08;94103.03;;;9.51;100.00
6433;BME280;3249;42.690;23.260;2023-05-23T03:01:38;94110.19;;;9.68;100.00
6433;BME280;3249;42.690;23.260;2023-05-23T03:04:06;94114.88;;;9.71;100.00
6433;BME280;3249;42.690;23.260;2023-05-23T03:06:38;94114.03;;;9.58;100.00
6433;BME280;3249;42.690;23.260;2023-05-23T03:09:09;94112.31;;;9.71;100.00
6433;BME280;3249;42.690;23.260;2023-05-23T03:11:39;94105.31;;;9.78;100.00
6433;BME280;3249;42.690;23.260;2023-05-23T03:14:08;94097.69;;;9.71;100.00
6433;BME280;3249;42.690;23.260;2023-05-23T03:16:37;94113.25;;;9.76;100.00
6433;BME280;3249;42.690;23.260;2023-05-23T03:19:06;94107.59;;;9.49;100.00
6433;BME280;3249;42.690;23.260;2023-05-23T03:21:38;94114.78;;;9.41;100.00
6433;BME280;3249;42.690;23.260;2023-05-23T03:24:09;94107.19;;;9.71;100.00
6433;BME280;3249;42.690;23.260;2023-05-23T03:26:38;94119.03;;;9.90;100.00
6433;BME280;3249;42.690;23.260;2023-05-23T03:29:07;94120.88;;;9.83;100.00
6433;BME280;3249;42.690;23.260;2023-05-23T03:31:36;94123.03;;;9.86;100.00
6433;BME280;3249;42.690;23.260;2023-05-23T03:34:05;94124.69;;;9.98;100.00
6433;BME280;3249;42.690;23.260;2023-05-23T03:36:38;94120.53;;;10.15;100.00
6433;BME280;3249;42.690;23.260;2023-05-23T03:39:07;94132.00;;;10.31;100.00
6433;BME280;3249;42.690;23.260;2023-05-23T03:41:36;94136.09;;;10.50;100.00
6433;BME280;3249;42.690;23.260;2023-05-23T03:44:05;94136.72;;;10.63;100.00
6433;BME280;3249;42.690;23.260;2023-05-23T03:46:34;94133.84;;;10.42;100.00
6433;BME280;3249;42.690;23.260;2023-05-23T03:49:03;94131.91;;;10.67;100.00
6433;BME280;3249;42.690;23.260;2023-05-23T03:51:33;94135.38;;;10.72;100.00
6433;BME280;3249;42.690;23.260;2023-05-23T03:54:05;94145.06;;;10.59;100.00
6433;BME280;3249;42.690;23.260;2023-05-23T03:56:34;94139.34;;;10.45;100.00
6433;BME280;3249;42.690;23.260;2023-05-23T03:59:03;94146.59;;;10.48;100.00
6433;BME280;3249;42.690;23.260;2023-05-23T04:01:32;94147.53;;;10.54;100.00
6433;BME280;3249;42.690;23.260;2023-05-23T04:04:01;94145.69;;;10.72;100.00
6433;BME280;3249;42.690;23.260;2023-05-23T04:06:33;94141.81;;;10.93;100.00
6433;BME280;3249;42.690;23.260;2023-05-23T04:09:05;94146.44;;;10.91;100.00
6433;BME280;3249;42.690;23.260;2023-05-23T04:11:39;94144.13;;;10.42;100.00
6433;BME280;3249;42.690;23.260;2023-05-23T04:14:09;94145.69;;;10.43;100.00
6433;BME280;3249;42.690;23.260;2023-05-23T04:16:38;94145.94;;;10.23;100.00
6433;BME280;3249;42.690;23.260;2023-05-23T04:19:09;94144.22;;;10.35;100.00
6433;BME280;3249;42.690;23.260;2023-05-23T04:21:38;94145.63;;;10.20;100.00
6433;BME280;3249;42.690;23.260;2023-05-23T04:24:12;94140.31;;;10.44;100.00
6433;BME280;3249;42.690;23.260;2023-05-23T04:26:42;94134.94;;;10.34;100.00
6433;BME280;3249;42.690;23.260;2023-05-23T04:29:11;94123.53;;;10.71;100.00
6433;BME280;3249;42.690;23.260;2023-05-23T04:31:41;94125.78;;;10.79;100.00
6433;BME280;3249;42.690;23.260;2023-05-23T04:34:11;94132.53;;;11.03;100.00
6433;BME280;3249;42.690;23.260;2023-05-23T04:36:42;94131.16;;;10.78;100.00
6433;BME280;3249;42.690;23.260;2023-05-23T04:39:15;94137.25;;;10.54;100.00
6433;BME280;3249;42.690;23.260;2023-05-23T04:42:03;94143.66;;;10.33;100.00
6433;BME280;3249;42.690;23.260;2023-05-23T04:44:51;94156.56;;;10.74;100.00
6433;BME280;3249;42.690;23.260;2023-05-23T04:47:36;94156.44;;;10.69;100.00
6433;BME280;3249;42.690;23.260;2023-05-23T04:50:10;94149.06;;;10.84;100.00
6433;BME280;3249;42.690;23.260;2023-05-23T04:52:40;94149.16;;;10.78;100.00
6433;BME280;3249;42.690;23.260;2023-05-23T04:55:11;94157.50;;;10.91;100.00
6433;BME280;3249;42.690;23.260;2023-05-23T04:57:40;94169.63;;;11.02;100.00
6433;BME280;3249;42.690;23.260;2023-05-23T05:00:12;94165.34;;;10.67;100.00
6433;BME280;3249;42.690;23.260;2023-05-23T05:02:41;94165.31;;;10.85;100.00
6433;BME280;3249;42.690;23.260;2023-05-23T05:05:10;94166.81;;;11.04;100.00
6433;BME280;3249;42.690;23.260;2023-05-23T05:07:39;94161.56;;;11.22;100.00
6433;BME280;3249;42.690;23.260;2023-05-23T05:10:11;94164.84;;;11.40;100.00
6433;BME280;3249;42.690;23.260;2023-05-23T05:12:43;94164.41;;;11.55;100.00
6433;BME280;3249;42.690;23.260;2023-05-23T05:15:15;94171.63;;;11.64;100.00
6433;BME280;3249;42.690;23.260;2023-05-23T05:17:48;94178.44;;;11.82;100.00
6433;BME280;3249;42.690;23.260;2023-05-23T05:20:18;94180.13;;;11.88;100.00
6433;BME280;3249;42.690;23.260;2023-05-23T05:22:54;94180.56;;;11.96;100.00
6433;BME280;3249;42.690;23.260;2023-05-23T05:25:27;94175.16;;;12.09;100.00
6433;BME280;3249;42.690;23.260;2023-05-23T05:27:57;94183.25;;;12.01;100.00
6433;BME280;3249;42.690;23.260;2023-05-23T05:30:27;94178.63;;;12.15;100.00
6433;BME280;3249;42.690;23.260;2023-05-23T05:33:00;94176.81;;;12.27;100.00
6433;BME280;3249;42.690;23.260;2023-05-23T05:35:31;94182.00;;;12.43;100.00
6433;BME280;3249;42.690;23.260;2023-05-23T05:38:01;94182.19;;;12.14;100.00
6433;BME280;3249;42.690;23.260;2023-05-23T05:40:33;94187.88;;;12.39;100.00
6433;BME280;3249;42.690;23.260;2023-05-23T05:43:02;94179.69;;;12.42;100.00
6433;BME280;3249;42.690;23.260;2023-05-23T05:45:31;94181.75;;;12.56;100.00
6433;BME280;3249;42.690;23.260;2023-05-23T05:48:01;94179.13;;;12.68;100.00
6433;BME280;3249;42.690;23.260;2023-05-23T05:50:30;94195.34;;;12.80;100.00
6433;BME280;3249;42.690;23.260;2023-05-23T05:53:00;94172.41;;;12.67;100.00
6433;BME280;3249;42.690;23.260;2023-05-23T05:55:29;94200.53;;;13.08;100.00
6433;BME280;3249;42.690;23.260;2023-05-23T05:58:00;94197.53;;;13.27;100.00
6433;BME280;3249;42.690;23.260;2023-05-23T06:00:37;94190.63;;;13.49;100.00
6433;BME280;3249;42.690;23.260;2023-05-23T06:03:07;94201.88;;;13.76;100.00
6433;BME280;3249;42.690;23.260;2023-05-23T06:05:50;94201.88;;;13.93;100.00
6433;BME280;3249;42.690;23.260;2023-05-23T06:08:20;94196.75;;;14.15;100.00
6433;BME280;3249;42.690;23.260;2023-05-23T06:10:49;94197.50;;;14.32;100.00
6433;BME280;3249;42.690;23.260;2023-05-23T06:13:21;94204.25;;;14.54;100.00
6433;BME280;3249;42.690;23.260;2023-05-23T06:15:52;94199.34;;;14.58;100.00
6433;BME280;3249;42.690;23.260;2023-05-23T06:18:22;94200.75;;;14.06;100.00
6433;BME280;3249;42.690;23.260;2023-05-23T06:20:51;94189.34;;;14.07;100.00
6433;BME280;3249;42.690;23.260;2023-05-23T06:23:21;94195.25;;;14.40;100.00
6433;BME280;3249;42.690;23.260;2023-05-23T06:25:51;94196.53;;;14.38;100.00
6433;BME280;3249;42.690;23.260;2023-05-23T06:28:23;94197.97;;;14.29;100.00
6433;BME280;3249;42.690;23.260;2023-05-23T06:30:52;94200.31;;;14.14;100.00
6433;BME280;3249;42.690;23.260;2023-05-23T06:33:21;94197.22;;;14.12;100.00
6433;BME280;3249;42.690;23.260;2023-05-23T06:35:50;94193.44;;;14.02;100.00
6433;BME280;3249;42.690;23.260;2023-05-23T06:38:19;94204.84;;;14.61;100.00
6433;BME280;3249;42.690;23.260;2023-05-23T06:40:48;94192.00;;;14.98;100.00
6433;BME280;3249;42.690;23.260;2023-05-23T06:43:17;94203.13;;;15.20;100.00
6433;BME280;3249;42.690;23.260;2023-05-23T06:45:53;94199.72;;;14.66;100.00
6433;BME280;3249;42.690;23.260;2023-05-23T06:48:27;94186.81;;;14.71;100.00
6433;BME280;3249;42.690;23.260;2023-05-23T06:50:55;94190.28;;;14.82;100.00
6433;BME280;3249;42.690;23.260;2023-05-23T06:53:25;94189.09;;;14.89;100.00
6433;BME280;3249;42.690;23.260;2023-05-23T06:55:54;94187.06;;;15.23;100.00
6433;BME280;3249;42.690;23.260;2023-05-23T06:58:24;94188.72;;;15.60;100.00
6433;BME280;3249;42.690;23.260;2023-05-23T07:00:58;94190.94;;;15.47;100.00
6433;BME280;3249;42.690;23.260;2023-05-23T07:03:31;94184.25;;;15.56;100.00
6433;BME280;3249;42.690;23.260;2023-05-23T07:06:05;94184.94;;;15.78;100.00
6433;BME280;3249;42.690;23.260;2023-05-23T07:08:34;94176.28;;;15.67;100.00
6433;BME280;3249;42.690;23.260;2023-05-23T07:11:04;94182.63;;;15.81;100.00
6433;BME280;3249;42.690;23.260;2023-05-23T07:13:37;94176.66;;;15.44;100.00
6433;BME280;3249;42.690;23.260;2023-05-23T07:16:12;94164.34;;;15.66;100.00
6433;BME280;3249;42.690;23.260;2023-05-23T07:18:54;94166.91;;;15.61;100.00
6433;BME280;3249;42.690;23.260;2023-05-23T07:21:23;94165.44;;;15.75;100.00
6433;BME280;3249;42.690;23.260;2023-05-23T07:23:52;94162.44;;;15.93;100.00
6433;BME280;3249;42.690;23.260;2023-05-23T07:26:22;94170.31;;;16.08;100.00
6433;BME280;3249;42.690;23.260;2023-05-23T07:28:54;94158.88;;;15.63;100.00
6433;BME280;3249;42.690;23.260;2023-05-23T07:31:26;94163.25;;;15.99;100.00
6433;BME280;3249;42.690;23.260;2023-05-23T07:33:58;94163.84;;;16.16;100.00
6433;BME280;3249;42.690;23.260;2023-05-23T07:36:33;94159.16;;;15.66;100.00
6433;BME280;3249;42.690;23.260;2023-05-23T07:39:05;94135.19;;;15.54;100.00
6433;BME280;3249;42.690;23.260;2023-05-23T07:41:35;94160.69;;;16.09;100.00
6433;BME280;3249;42.690;23.260;2023-05-23T07:44:05;94153.00;;;15.77;100.00
6433;BME280;3249;42.690;23.260;2023-05-23T07:46:37;94157.72;;;16.37;100.00
6433;BME280;3249;42.690;23.260;2023-05-23T07:49:06;94162.88;;;16.22;100.00
6433;BME280;3249;42.690;23.260;2023-05-23T07:51:35;94157.81;;;16.52;100.00
6433;BME280;3249;42.690;23.260;2023-05-23T07:54:05;94162.31;;;16.76;100.00
6433;BME280;3249;42.690;23.260;2023-05-23T07:56:38;94150.66;;;17.09;100.00
6433;BME280;3249;42.690;23.260;2023-05-23T07:59:07;94155.84;;;16.89;100.00
6433;BME280;3249;42.690;23.260;2023-05-23T08:01:39;94155.88;;;17.29;100.00
6433;BME280;3249;42.690;23.260;2023-05-23T08:04:12;94153.78;;;17.26;100.00
6433;BME280;3249;42.690;23.260;2023-05-23T08:06:49;94145.09;;;16.60;100.00
6433;BME280;3249;42.690;23.260;2023-05-23T08:09:22;94153.44;;;16.72;100.00
6433;BME280;3249;42.690;23.260;2023-05-23T08:11:54;94148.28;;;16.97;100.00
6433;BME280;3249;42.690;23.260;2023-05-23T08:14:24;94146.50;;;17.13;100.00
6433;BME280;3249;42.690;23.260;2023-05-23T08:17:16;94139.47;;;17.33;100.00
6433;BME280;3249;42.690;23.260;2023-05-23T08:19:46;94146.00;;;17.21;100.00
6433;BME280;3249;42.690;23.260;2023-05-23T08:22:15;94156.13;;;17.17;100.00
6433;BME280;3249;42.690;23.260;2023-05-23T08:24:44;94149.38;;;17.16;100.00
6433;BME280;3249;42.690;23.260;2023-05-23T08:27:13;94146.25;;;17.29;100.00
6433;BME280;3249;42.690;23.260;2023-05-23T08:29:44;94152.44;;;16.98;100.00
6433;BME280;3249;42.690;23.260;2023-05-23T08:32:16;94158.94;;;16.81;100.00
6433;BME280;3249;42.690;23.260;2023-05-23T08:34:45;94152.72;;;16.92;100.00
6433;BME280;3249;42.690;23.260;2023-05-23T08:37:15;94145.97;;;17.06;100.00
6433;BME280;3249;42.690;23.260;2023-05-23T08:39:43;94145.75;;;17.27;100.00
6433;BME280;3249;42.690;23.260;2023-05-23T08:42:39;94146.28;;;17.59;100.00
6433;BME280;3249;42.690;23.260;2023-05-23T08:45:10;94126.22;;;17.55;100.00
6433;BME280;3249;42.690;23.260;2023-05-23T08:47:43;94144.63;;;18.08;100.00
6433;BME280;3249;42.690;23.260;2023-05-23T08:50:15;94147.00;;;18.00;100.00
6433;BME280;3249;42.690;23.260;2023-05-23T08:52:51;94136.22;;;18.37;100.00
6433;BME280;3249;42.690;23.260;2023-05-23T08:55:23;94140.84;;;18.55;100.00
6433;BME280;3249;42.690;23.260;2023-05-23T08:57:54;94145.44;;;18.73;100.00
6433;BME280;3249;42.690;23.260;2023-05-23T09:00:36;94110.16;;;18.32;100.00
6433;BME280;3249;42.690;23.260;2023-05-23T09:03:08;94144.97;;;18.66;100.00
6433;BME280;3249;42.690;23.260;2023-05-23T09:05:59;94141.88;;;18.59;100.00
6433;BME280;3249;42.690;23.260;2023-05-23T09:08:29;94137.56;;;18.24;100.00
6433;BME280;3249;42.690;23.260;2023-05-23T09:10:59;94134.00;;;18.64;100.00
6433;BME280;3249;42.690;23.260;2023-05-23T09:13:33;94138.22;;;18.50;100.00
6433;BME280;3249;42.690;23.260;2023-05-23T09:16:07;94127.63;;;18.26;100.00
6433;BME280;3249;42.690;23.260;2023-05-23T09:18:45;94144.09;;;18.80;80.45
6433;BME280;3249;42.690;23.260;2023-05-23T09:21:16;94139.47;;;19.11;74.78
6433;BME280;3249;42.690;23.260;2023-05-23T09:23:53;94138.63;;;19.25;82.24
6433;BME280;3249;42.690;23.260;2023-05-23T09:26:25;94136.28;;;19.19;84.69
6433;BME280;3249;42.690;23.260;2023-05-23T09:28:56;94135.56;;;19.47;74.48
6433;BME280;3249;42.690;23.260;2023-05-23T09:31:26;94133.06;;;19.65;76.56
6433;BME280;3249;42.690;23.260;2023-05-23T09:33:58;94140.72;;;19.85;75.18
6433;BME280;3249;42.690;23.260;2023-05-23T09:36:30;94127.97;;;19.79;75.25
6433;BME280;3249;42.690;23.260;2023-05-23T09:39:02;94132.06;;;19.90;80.65
6433;BME280;3249;42.690;23.260;2023-05-23T09:41:34;94131.13;;;19.76;74.84
6433;BME280;3249;42.690;23.260;2023-05-23T09:44:06;94129.13;;;19.68;74.30
6433;BME280;3249;42.690;23.260;2023-05-23T09:46:36;94099.94;;;19.32;80.51
6433;BME280;3249;42.690;23.260;2023-05-23T09:49:16;94126.56;;;19.63;71.96
6433;BME280;3249;42.690;23.260;2023-05-23T09:51:57;94109.50;;;19.70;71.11
6433;BME280;3249;42.690;23.260;2023-05-23T09:54:27;94120.41;;;19.77;72.01
6433;BME280;3249;42.690;23.260;2023-05-23T09:56:58;94124.75;;;19.58;72.06
6433;BME280;3249;42.690;23.260;2023-05-23T09:59:30;94116.38;;;19.90;70.26
6433;BME280;3249;42.690;23.260;2023-05-23T10:02:01;94115.84;;;20.16;67.44
6433;BME280;3249;42.690;23.260;2023-05-23T10:04:38;94120.75;;;20.23;66.55
6433;BME280;3249;42.690;23.260;2023-05-23T10:07:12;94117.84;;;20.24;58.72
6433;BME280;3249;42.690;23.260;2023-05-23T10:09:47;94119.03;;;20.37;58.57
6433;BME280;3249;42.690;23.260;2023-05-23T10:12:46;94119.66;;;20.29;59.05
6433;BME280;3249;42.690;23.260;2023-05-23T10:15:15;94122.50;;;20.04;61.73
6433;BME280;3249;42.690;23.260;2023-05-23T10:18:02;94113.78;;;20.13;54.03
6433;BME280;3249;42.690;23.260;2023-05-23T10:20:38;94126.97;;;20.50;49.49
6433;BME280;3249;42.690;23.260;2023-05-23T10:23:08;94116.44;;;20.32;53.30
6433;BME280;3249;42.690;23.260;2023-05-23T10:25:38;94110.69;;;19.83;52.25
6433;BME280;3249;42.690;23.260;2023-05-23T10:28:07;94123.34;;;20.23;51.47
6433;BME280;3249;42.690;23.260;2023-05-23T10:30:37;94113.91;;;20.27;54.50
6433;BME280;3249;42.690;23.260;2023-05-23T10:33:06;94114.81;;;20.59;47.08
6433;BME280;3249;42.690;23.260;2023-05-23T10:35:45;94104.22;;;20.69;47.17
6433;BME280;3249;42.690;23.260;2023-05-23T10:38:27;94085.53;;;20.76;45.91
6433;BME280;3249;42.690;23.260;2023-05-23T10:41:07;94114.50;;;21.03;47.27
6433;BME280;3249;42.690;23.260;2023-05-23T10:43:46;94115.06;;;21.00;44.75
6433;BME280;3249;42.690;23.260;2023-05-23T10:46:19;94109.25;;;21.03;42.14
6433;BME280;3249;42.690;23.260;2023-05-23T10:48:53;94080.56;;;20.98;44.16
6433;BME280;3249;42.690;23.260;2023-05-23T10:51:37;94107.22;;;21.18;42.57
6433;BME280;3249;42.690;23.260;2023-05-23T10:54:09;94101.38;;;21.21;44.47
6433;BME280;3249;42.690;23.260;2023-05-23T10:56:39;94109.69;;;21.10;41.12
6433;BME280;3249;42.690;23.260;2023-05-23T10:59:18;94103.78;;;21.36;40.74
6433;BME280;3249;42.690;23.260;2023-05-23T11:01:50;94094.94;;;21.32;42.45
6433;BME280;3249;42.690;23.260;2023-05-23T11:04:24;94097.56;;;21.32;43.95
6433;BME280;3249;42.690;23.260;2023-05-23T11:06:57;94096.09;;;21.26;42.30
6433;BME280;3249;42.690;23.260;2023-05-23T11:09:26;94100.09;;;21.37;41.38
6433;BME280;3249;42.690;23.260;2023-05-23T11:12:00;94108.41;;;20.70;40.82
6433;BME280;3249;42.690;23.260;2023-05-23T11:14:32;94093.06;;;21.01;41.99
6433;BME280;3249;42.690;23.260;2023-05-23T11:17:15;94082.41;;;21.29;42.64
6433;BME280;3249;42.690;23.260;2023-05-23T11:20:00;94085.00;;;20.97;41.75
6433;BME280;3249;42.690;23.260;2023-05-23T11:22:34;94085.69;;;21.03;40.32
6433;BME280;3249;42.690;23.260;2023-05-23T11:25:08;94080.16;;;21.23;41.36
6433;BME280;3249;42.690;23.260;2023-05-23T11:27:39;94079.38;;;21.54;41.63
6433;BME280;3249;42.690;23.260;2023-05-23T11:30:11;94086.56;;;21.49;41.59
6433;BME280;3249;42.690;23.260;2023-05-23T11:32:41;94055.84;;;20.85;43.38
6433;BME280;3249;42.690;23.260;2023-05-23T11:35:10;94076.88;;;21.31;40.50
6433;BME280;3249;42.690;23.260;2023-05-23T11:37:42;94074.34;;;21.26;39.79
6433;BME280;3249;42.690;23.260;2023-05-23T11:40:26;94051.91;;;21.38;39.72
6433;BME280;3249;42.690;23.260;2023-05-23T11:42:56;94068.19;;;21.81;39.26
6433;BME280;3249;42.690;23.260;2023-05-23T11:45:26;94064.13;;;22.02;40.26
6433;BME280;3249;42.690;23.260;2023-05-23T11:47:57;94072.47;;;21.90;37.69
6433;BME280;3249;42.690;23.260;2023-05-23T11:50:25;94074.81;;;21.92;37.41
6433;BME280;3249;42.690;23.260;2023-05-23T11:52:58;94069.06;;;21.90;38.90
6433;BME280;3249;42.690;23.260;2023-05-23T11:55:28;94066.78;;;21.70;38.51
6433;BME280;3249;42.690;23.260;2023-05-23T11:57:57;94048.53;;;21.51;39.09
6433;BME280;3249;42.690;23.260;2023-05-23T12:00:28;94052.13;;;21.55;40.82
6433;BME280;3249;42.690;23.260;2023-05-23T12:02:57;94048.31;;;21.61;37.52
6433;BME280;3249;42.690;23.260;2023-05-23T12:05:34;94057.03;;;21.89;36.95
6433;BME280;3249;42.690;23.260;2023-05-23T12:08:05;94059.34;;;21.77;36.57
6433;BME280;3249;42.690;23.260;2023-05-23T12:10:34;94059.38;;;22.04;36.68
6433;BME280;3249;42.690;23.260;2023-05-23T12:13:04;94051.69;;;22.21;38.23
6433;BME280;3249;42.690;23.260;2023-05-23T12:15:33;94057.72;;;22.22;36.39
6433;BME280;3249;42.690;23.260;2023-05-23T12:18:02;94030.81;;;21.89;38.32
6433;BME280;3249;42.690;23.260;2023-05-23T12:20:31;94034.53;;;21.42;42.13
6433;BME280;3249;42.690;23.260;2023-05-23T12:23:05;94037.72;;;21.85;39.14
6433;BME280;3249;42.690;23.260;2023-05-23T12:25:39;94025.19;;;21.95;38.11
6433;BME280;3249;42.690;23.260;2023-05-23T12:28:09;94038.69;;;22.16;37.59
6433;BME280;3249;42.690;23.260;2023-05-23T12:30:41;94038.00;;;21.97;36.50
6433;BME280;3249;42.690;23.260;2023-05-23T12:33:10;94036.06;;;21.89;35.89
6433;BME280;3249;42.690;23.260;2023-05-23T12:35:42;94019.84;;;21.87;34.23
6433;BME280;3249;42.690;23.260;2023-05-23T12:38:18;94029.25;;;22.15;36.54
6433;BME280;3249;42.690;23.260;2023-05-23T12:41:06;94013.06;;;21.86;34.73
6433;BME280;3249;42.690;23.260;2023-05-23T12:43:37;94021.59;;;22.05;36.39
6433;BME280;3249;42.690;23.260;2023-05-23T12:46:07;94007.50;;;22.28;36.12
6433;BME280;3249;42.690;23.260;2023-05-23T12:48:36;94027.56;;;22.60;35.40
6433;BME280;3249;42.690;23.260;2023-05-23T12:51:05;94011.81;;;22.60;34.64
6433;BME280;3249;42.690;23.260;2023-05-23T12:53:37;94021.88;;;22.66;35.32
6433;BME280;3249;42.690;23.260;2023-05-23T12:56:06;93994.16;;;22.96;35.43
6433;BME280;3249;42.690;23.260;2023-05-23T12:58:36;94013.31;;;22.74;34.00
6433;BME280;3249;42.690;23.260;2023-05-23T13:01:04;94019.47;;;21.80;33.01
6433;BME280;3249;42.690;23.260;2023-05-23T13:03:33;94019.00;;;21.32;34.02
6433;BME280;3249;42.690;23.260;2023-05-23T13:06:03;93999.22;;;21.67;33.85
6433;BME280;3249;42.690;23.260;2023-05-23T13:08:32;94008.50;;;21.91;32.20
6433;BME280;3249;42.690;23.260;2023-05-23T13:11:04;94003.91;;;22.11;32.96
6433;BME280;3249;42.690;23.260;2023-05-23T13:13:33;94009.88;;;22.38;31.62
6433;BME280;3249;42.690;23.260;2023-05-23T13:16:02;94006.94;;;22.04;32.38
6433;BME280;3249;42.690;23.260;2023-05-23T13:21:16;94003.72;;;21.07;32.46
6433;BME280;3249;42.690;23.260;2023-05-23T13:23:44;94002.03;;;20.98;32.92
6433;BME280;3249;42.690;23.260;2023-05-23T13:26:16;94007.06;;;21.53;32.91
6433;BME280;3249;42.690;23.260;2023-05-23T13:28:45;93998.78;;;21.92;31.70
6433;BME280;3249;42.690;23.260;2023-05-23T13:31:14;94001.72;;;22.53;31.45